createdAt,value
2023-02-03T00:04:48.837Z,4.77
2023-02-03T00:09:52.189Z,4.37
2023-02-03T00:14:55.387Z,5.10
2023-02-03T00:19:58.814Z,5.33
2023-02-03T00:25:02.477Z,6.87
2023-02-03T00:30:06.647Z,6.37
2023-02-03T00:35:09.996Z,6.00
2023-02-03T00:40:13.857Z,6.20
2023-02-03T00:45:17.757Z,5.53
2023-02-03T00:50:20.989Z,5.40
2023-02-03T00:55:24.749Z,4.97
2023-02-03T01:00:28.320Z,4.67
2023-02-03T01:05:31.968Z,5.10
2023-02-03T01:10:37.755Z,4.90
2023-02-03T01:15:48.574Z,5.10
2023-02-03T01:20:51.725Z,5.03
2023-02-03T01:25:55.085Z,4.67
2023-02-03T01:30:58.364Z,4.77
2023-02-03T01:36:02.307Z,4.83
2023-02-03T01:41:08.880Z,5.13
2023-02-03T01:46:43.270Z,4.90
2023-02-03T01:51:47.518Z,5.23
2023-02-03T01:57:17.019Z,4.53
2023-02-03T02:02:20.864Z,4.93
2023-02-03T02:07:25.847Z,4.77
2023-02-03T02:12:28.910Z,4.57
2023-02-03T02:17:53.444Z,5.13
2023-02-03T02:23:23.600Z,4.43
2023-02-03T02:29:03.420Z,4.53
2023-02-03T02:34:14.907Z,5.47
2023-02-03T02:39:38.232Z,3.80
2023-02-03T02:44:52.370Z,4.10
2023-02-03T02:50:11.254Z,4.00
2023-02-03T02:55:28.667Z,3.80
2023-02-03T03:00:33.768Z,3.90
2023-02-03T03:05:37.306Z,3.40
2023-02-03T03:10:43.756Z,3.23
2023-02-03T03:15:48.234Z,3.90
2023-02-03T03:20:53.829Z,3.60
2023-02-03T03:26:25.082Z,3.60
2023-02-03T03:31:28.588Z,4.07
2023-02-03T03:36:45.262Z,4.23
2023-02-03T03:41:57.057Z,5.17
2023-02-03T03:47:12.620Z,4.83
2023-02-03T03:52:22.403Z,4.10
2023-02-03T03:57:44.116Z,4.67
2023-02-03T04:02:53.157Z,4.57
2023-02-03T04:07:56.713Z,7.97
2023-02-03T04:13:00.274Z,6.63
2023-02-03T04:18:03.615Z,5.93
2023-02-03T04:23:06.986Z,5.27
2023-02-03T04:28:10.477Z,6.40
2023-02-03T04:33:13.786Z,6.07
2023-02-03T04:38:17.017Z,8.47
2023-02-03T04:43:20.370Z,7.17
2023-02-03T04:48:24.018Z,9.90
2023-02-03T04:53:27.167Z,7.63
2023-02-03T04:58:30.618Z,7.20
2023-02-03T05:03:34.009Z,5.43
2023-02-03T05:08:37.590Z,5.20
2023-02-03T05:13:40.953Z,5.10
2023-02-03T05:18:44.330Z,4.57
2023-02-03T05:23:48.205Z,5.70
2023-02-03T05:28:52.488Z,5.70
2023-02-03T05:33:56.880Z,4.30
2023-02-03T05:39:00.478Z,6.57
2023-02-03T05:44:03.962Z,7.23
2023-02-03T05:49:07.543Z,8.60
2023-02-03T05:54:11.442Z,6.47
2023-02-03T05:59:14.564Z,5.83
2023-02-03T06:04:17.930Z,6.47
2023-02-03T06:09:21.180Z,7.37
2023-02-03T06:14:24.552Z,6.37
2023-02-03T06:19:27.814Z,7.70
2023-02-03T06:24:30.985Z,7.20
2023-02-03T06:29:34.152Z,8.90
2023-02-03T06:34:37.474Z,9.03
2023-02-03T06:39:40.737Z,8.10
2023-02-03T06:44:44.072Z,8.97
2023-02-03T06:49:47.532Z,10.20
2023-02-03T06:54:50.740Z,9.67
2023-02-03T06:59:54.061Z,8.93
2023-02-03T07:04:57.309Z,10.10
2023-02-03T07:10:01.932Z,9.80
2023-02-03T07:15:06.020Z,8.20
2023-02-03T07:20:09.667Z,8.20
2023-02-03T07:25:13.377Z,8.67
2023-02-03T07:30:17.258Z,8.20
2023-02-03T07:35:20.559Z,7.00
2023-02-03T07:40:23.828Z,9.53
2023-02-03T07:45:27.388Z,12.40
2023-02-03T07:50:30.829Z,10.00
2023-02-03T07:55:34.731Z,7.60
2023-02-03T08:00:38.234Z,9.17
2023-02-03T08:05:41.478Z,10.20
2023-02-03T08:10:44.622Z,9.53
2023-02-03T08:15:48.688Z,9.60
2023-02-03T08:20:52.311Z,8.67
2023-02-03T08:25:55.813Z,7.33
2023-02-03T08:30:59.505Z,8.10
2023-02-03T08:36:03.326Z,6.43
2023-02-03T08:41:15.577Z,6.67
2023-02-03T08:46:18.852Z,9.17
2023-02-03T08:51:22.679Z,9.27
2023-02-03T08:56:26.921Z,12.23
2023-02-03T09:01:30.373Z,8.70
2023-02-03T09:06:33.812Z,13.20
2023-02-03T09:11:37.402Z,13.37
2023-02-03T09:16:41.188Z,8.77
2023-02-03T09:21:48.293Z,8.70
2023-02-03T09:26:52.031Z,10.33
2023-02-03T09:31:55.362Z,8.27
2023-02-03T09:36:58.733Z,8.60
2023-02-03T09:42:32.737Z,7.53
2023-02-03T09:47:39.632Z,9.23
2023-02-03T09:52:44.654Z,7.70
2023-02-03T09:58:02.673Z,9.97
2023-02-03T10:03:15.525Z,7.80
2023-02-03T10:08:27.707Z,8.73
2023-02-03T10:13:40.712Z,9.50
2023-02-03T10:18:52.367Z,9.63
2023-02-03T10:23:58.820Z,6.90
2023-02-03T10:29:20.023Z,9.30
2023-02-03T10:34:24.963Z,5.77
2023-02-03T10:39:34.432Z,7.43
2023-02-03T10:44:45.034Z,10.00
2023-02-03T10:49:51.791Z,6.27
2023-02-03T10:54:56.565Z,6.60
2023-02-03T11:00:17.422Z,6.40
2023-02-03T11:05:25.422Z,7.43
2023-02-03T11:10:29.521Z,7.13
2023-02-03T11:15:33.291Z,6.03
2023-02-03T11:20:37.470Z,6.90
2023-02-03T11:25:40.650Z,6.33
2023-02-03T11:30:44.253Z,5.50
2023-02-03T11:35:59.468Z,6.43
2023-02-03T11:41:04.115Z,6.70
2023-02-03T11:46:10.518Z,4.63
2023-02-03T11:51:31.200Z,4.43
2023-02-03T11:56:55.647Z,4.23
2023-02-03T12:02:20.391Z,3.70
2023-02-03T12:07:54.147Z,3.53
2023-02-03T12:13:00.660Z,3.50
2023-02-03T12:18:28.650Z,3.13
2023-02-03T12:23:52.131Z,4.60
2023-02-03T12:29:12.180Z,4.07
2023-02-03T12:34:45.504Z,2.80
2023-02-03T12:39:54.316Z,4.30
2023-02-03T12:45:05.930Z,3.83
2023-02-03T12:50:17.948Z,3.70
2023-02-03T12:56:11.133Z,5.93
2023-02-03T13:17:26.198Z,4.03
2023-02-03T13:22:29.769Z,3.77
2023-02-03T13:27:47.631Z,4.77
2023-02-03T13:33:05.841Z,4.23
2023-02-03T13:38:45.765Z,4.83
2023-02-03T13:43:54.615Z,5.60
2023-02-03T13:49:01.310Z,2.70
2023-02-03T13:54:14.999Z,3.70
2023-02-03T13:59:19.009Z,4.47
2023-02-03T14:04:25.484Z,3.50
2023-02-03T14:09:31.964Z,3.57
2023-02-03T14:14:38.392Z,3.53
2023-02-03T14:19:51.017Z,4.23
2023-02-03T14:24:57.152Z,5.13
2023-02-03T14:30:18.539Z,6.27
2023-02-03T14:35:43.645Z,5.87
2023-02-03T14:41:04.734Z,7.80
2023-02-03T14:46:11.282Z,8.77
2023-02-03T14:51:20.662Z,9.13
2023-02-03T14:57:00.450Z,8.20
2023-02-03T15:02:05.769Z,8.87
2023-02-03T15:07:09.711Z,9.10
2023-02-03T15:12:23.434Z,9.10
2023-02-03T15:17:32.451Z,8.87
2023-02-03T15:22:41.679Z,9.23
2023-02-03T15:27:46.922Z,9.00
2023-02-03T15:33:07.310Z,9.10
2023-02-03T15:38:20.947Z,9.90
2023-02-03T15:43:38.082Z,8.83
2023-02-03T15:48:47.581Z,8.87
2023-02-03T15:53:59.622Z,8.93
2023-02-03T15:59:03.096Z,8.27
2023-02-03T16:04:11.851Z,8.57
2023-02-03T16:09:39.653Z,10.83
2023-02-03T16:14:49.234Z,11.17
2023-02-03T16:20:05.513Z,11.53
2023-02-03T16:25:23.576Z,10.67
2023-02-03T16:30:45.456Z,11.70
2023-02-03T16:36:07.341Z,10.87
2023-02-03T16:41:36.488Z,12.60
2023-02-03T16:46:58.529Z,13.00
2023-02-03T16:52:03.269Z,11.43
2023-02-03T16:57:06.608Z,12.50
2023-02-03T17:02:11.337Z,13.20
2023-02-03T17:07:14.689Z,17.53
2023-02-03T17:12:18.121Z,17.30
2023-02-03T17:17:21.406Z,17.70
2023-02-03T17:22:25.419Z,18.93
2023-02-03T17:27:28.870Z,17.73
2023-02-03T17:32:32.533Z,18.00
2023-02-03T17:37:37.270Z,24.90
2023-02-03T17:53:25.852Z,22.53
2023-02-03T17:58:29.906Z,21.50
2023-02-03T18:03:39.469Z,21.87
2023-02-03T18:08:50.089Z,28.77
2023-02-03T18:13:55.358Z,26.87
2023-02-03T18:19:05.071Z,27.80
2023-02-03T18:24:11.457Z,28.07
2023-02-03T18:29:21.803Z,30.33
2023-02-03T18:34:30.938Z,34.37
2023-02-03T18:39:35.700Z,30.00
2023-02-03T18:44:42.014Z,27.47
2023-02-03T18:49:48.376Z,26.57
2023-02-03T18:54:53.517Z,25.03
2023-02-03T18:59:58.378Z,28.53
2023-02-03T19:05:02.814Z,26.10
2023-02-03T19:10:10.573Z,22.60
2023-02-03T19:15:15.681Z,22.33
2023-02-03T19:20:21.615Z,23.47
2023-02-03T19:25:29.966Z,20.93
2023-02-03T19:30:35.272Z,22.03
2023-02-03T19:35:43.287Z,19.13
2023-02-03T19:40:54.051Z,21.50
2023-02-03T19:45:59.191Z,19.77
2023-02-03T19:51:11.859Z,18.77
2023-02-03T19:56:24.096Z,16.77
2023-02-03T20:01:31.985Z,14.20
2023-02-03T20:06:38.676Z,15.03
2023-02-03T20:11:50.341Z,12.93
2023-02-03T20:16:58.829Z,14.00
2023-02-03T20:22:04.646Z,12.00
2023-02-03T20:27:10.927Z,13.03
2023-02-03T20:32:20.914Z,14.63
2023-02-03T20:37:27.263Z,7.73
2023-02-03T20:42:35.393Z,11.97
2023-02-03T20:47:41.346Z,10.97
2023-02-03T20:52:54.833Z,10.03
2023-02-03T20:58:04.763Z,10.10
2023-02-03T21:03:34.193Z,11.93
2023-02-03T21:08:40.901Z,11.80
2023-02-03T21:13:47.603Z,12.27
2023-02-03T21:18:56.588Z,11.43
2023-02-03T21:24:25.988Z,17.30
2023-02-03T21:29:34.393Z,7.90
2023-02-03T21:34:47.080Z,10.57
2023-02-03T21:39:52.584Z,8.43
2023-02-03T21:44:56.411Z,12.50
2023-02-03T21:50:02.440Z,10.40
2023-02-03T21:55:16.183Z,8.90
2023-02-03T22:00:48.276Z,9.77
2023-02-03T22:05:53.049Z,11.13
2023-02-03T22:10:57.207Z,10.60
2023-02-03T22:16:04.891Z,7.57
2023-02-03T22:21:12.696Z,8.97
2023-02-03T22:26:18.955Z,7.73
2023-02-03T22:31:23.229Z,6.77
2023-02-03T22:36:26.704Z,7.17
2023-02-03T22:41:32.779Z,9.30
2023-02-03T22:46:36.258Z,9.30
2023-02-03T22:51:40.615Z,6.57
2023-02-03T22:56:43.909Z,8.23
2023-02-03T23:01:47.320Z,7.33
2023-02-03T23:06:51.041Z,9.33
2023-02-03T23:11:54.322Z,5.93
2023-02-03T23:16:57.555Z,6.20
2023-02-03T23:25:25.905Z,6.60
2023-02-03T23:30:33.298Z,5.07
2023-02-03T23:35:49.380Z,5.20
2023-02-03T23:46:34.313Z,4.70
2023-02-03T23:51:46.341Z,2.33
2023-02-03T23:56:57.319Z,4.60
